Terminal Aerodrome Forecast
Issued by NWS Albany, NY

Home | Current Version | Previous Version | Text Only | Print | Product List | Glossary On
Versions: 1 2 3 4 5 6 7 8 9 10 11 12 13 14 15 16 17 18
000
FTUS41 KALY 011100
TAFPOU
TAF
KPOU 011132Z 0112/0212 23004KT P6SM SCT030 BKN050
     FM011800 29004KT P6SM VCSH BKN035 OVC120
     FM020200 03003KT 4SM -SN BR BKN025 OVC040
     FM020400 04005KT 1 1/2SM -SN BR BKN008 OVC015
     FM020800 02009KT 1/2SM SN FZFG VV004=

USA.gov is the U.S. government's official web portal to all federal, state and local government web resources and services.